Gregory, Texas
Current Conditions -  °F | °C
As of 4:55 AM on Thursday 23 Oct 2014 (Local Time) from KTFP Reporting Station
Clear Clear  
Wind Chill: 66°   Ceiling: Unl
Heat Index: 66°   Visibility: 10mi
Dew Point: 63°   Wind: 3mph
Humidity: 88%   Direction: 20°NNE
Pressure: 30.03"   Gusts: NA
Location:  27.92°N, 97.29°W
Report Text: KTFP 230955Z AUTO 02003KT 10SM CLR 19/17 A3003 RMK AO2 T01900170
Loading
Personal Weather Stations






























Interactive Weather Map
Tropical Storm Tracking
New forecast layout! Learn more

10-Day Weather Forecast

Advertisements
Track Severe Weather on mobile